Time;durP1;ratioP1;P1;durP2;ratioP2;P2;SDS_P1;SDS_P2;PMS_P1;PMS_P2;Temp;Humidity;BMP_temperature;BMP_pressure;BME280_temperature;BME280_humidity;BME280_pressure;Samples;Min_cycle;Max_cycle;Signal;HPM_P1;HPM_P2
2022/04/11 00:01:38;;;;;;;16.67;8.93;;;;;;;38.01;43.97;100700.38;6157571;23;20380;-73
2022/04/11 00:04:04;;;;;;;15.87;6.30;;;;;;;37.99;44.05;100699.88;6132951;23;20478;-73
2022/04/11 00:06:30;;;;;;;17.47;6.73;;;;;;;37.97;44.03;100699.41;6157775;23;20412;-72
2022/04/11 00:08:56;;;;;;;13.03;8.00;;;;;;;38.06;44.16;100697.56;6157576;23;20381;-75
2022/04/11 00:11:22;;;;;;;12.03;7.00;;;;;;;37.99;44.07;100694.47;6133401;23;20530;-73
2022/04/11 00:13:48;;;;;;;16.90;8.83;;;;;;;38.07;44.35;100692.94;6132998;23;20474;-73
2022/04/11 00:16:15;;;;;;;14.13;6.17;;;;;;;37.90;44.43;100699.84;6133241;23;20372;-72
2022/04/11 00:18:41;;;;;;;15.73;6.47;;;;;;;37.99;44.28;100699.06;6157185;23;20440;-73
2022/04/11 00:21:07;;;;;;;13.00;6.40;;;;;;;37.99;43.90;100696.38;6108846;23;20399;-73
2022/04/11 00:23:33;;;;;;;15.57;5.90;;;;;;;37.99;43.81;100689.03;6184012;23;20365;-74
2022/04/11 00:25:59;;;;;;;20.93;6.73;;;;;;;37.97;44.04;100690.47;6108457;23;20431;-73
2022/04/11 00:28:25;;;;;;;10.80;5.80;;;;;;;37.83;44.10;100690.56;6157474;23;20411;-73
2022/04/11 00:30:51;;;;;;;18.93;8.97;;;;;;;37.84;44.45;100684.03;6157577;23;20388;-73
2022/04/11 00:33:17;;;;;;;16.97;9.53;;;;;;;37.85;44.42;100688.34;6157674;23;20439;-73
2022/04/11 00:35:43;;;;;;;16.33;8.57;;;;;;;37.89;44.11;100687.41;6183802;23;20364;-75
2022/04/11 00:38:09;;;;;;;24.43;9.00;;;;;;;37.89;44.27;100676.59;6184713;23;20372;-73
2022/04/11 00:40:35;;;;;;;17.43;6.73;;;;;;;37.90;44.30;100680.09;6159242;23;20732;-73
2022/04/11 00:43:01;;;;;;;13.60;5.60;;;;;;;37.83;44.39;100671.59;6134951;23;20380;-72
2022/04/11 00:45:27;;;;;;;20.97;6.07;;;;;;;37.92;44.41;100664.31;6158907;23;20962;-75
2022/04/11 00:47:53;;;;;;;20.93;9.80;;;;;;;37.87;45.05;100667.16;6159432;23;20384;-75
2022/04/11 00:50:19;;;;;;;22.57;7.47;;;;;;;37.80;44.79;100661.34;6159506;23;20420;-75
2022/04/11 00:52:51;;;;;;;18.30;6.53;;;;;;;37.89;44.33;100663.03;6110522;23;20380;-75
2022/04/11 00:55:20;;;;;;;22.70;7.27;;;;;;;37.83;44.57;100661.56;6159256;23;20881;-75
2022/04/11 00:57:47;;;;;;;18.93;7.40;;;;;;;37.92;44.82;100659.69;6159355;23;20391;-75
2022/04/11 01:00:14;;;;;;;20.10;9.20;;;;;;;37.96;44.59;100648.25;6159263;23;20392;-73
2022/04/11 01:02:40;;;;;;;22.53;8.07;;;;;;;37.96;44.68;100651.75;6134632;23;20388;-74
2022/04/11 01:05:11;;;;;;;22.17;7.50;;;;;;;37.80;44.45;100650.53;6159020;23;20474;-75
2022/04/11 01:07:38;;;;;;;23.83;10.30;;;;;;;37.78;43.94;100648.13;6159077;23;20394;-73
2022/04/11 01:10:05;;;;;;;27.83;6.40;;;;;;;37.75;44.45;100643.34;6159190;23;20471;-72
2022/04/11 01:12:32;;;;;;;19.60;9.37;;;;;;;37.82;44.72;100649.16;6110477;23;20388;-73
2022/04/11 01:14:58;;;;;;;19.53;7.97;;;;;;;37.77;44.38;100634.91;6159199;23;20367;-73
2022/04/11 01:17:34;;;;;;;23.03;7.20;;;;;;;37.79;44.34;100632.69;6158660;23;20448;-73
2022/04/11 01:20:16;;;;;;;19.07;7.70;;;;;;;37.79;44.42;100624.56;6159141;23;20868;-73
2022/04/11 01:22:43;;;;;;;25.80;7.73;;;;;;;37.87;44.43;100623.84;6135466;23;20862;-73
2022/04/11 01:25:10;;;;;;;16.63;7.13;;;;;;;37.91;43.66;100620.19;6158769;23;20431;-73
2022/04/11 01:27:37;;;;;;;21.00;8.87;;;;;;;37.80;43.65;100621.56;6158953;23;20386;-75
2022/04/11 01:30:05;;;;;;;21.10;10.30;;;;;;;37.80;44.23;100624.28;6134563;23;20380;-75
2022/04/11 01:32:31;;;;;;;20.60;6.87;;;;;;;37.82;43.65;100624.78;6158835;23;20531;-75
2022/04/11 01:34:57;;;;;;;16.03;7.50;;;;;;;37.78;43.44;100625.69;6134508;23;20709;-75
2022/04/11 01:37:24;;;;;;;23.57;7.70;;;;;;;37.82;43.65;100615.88;6158641;23;20388;-75
2022/04/11 01:39:50;;;;;;;16.27;7.30;;;;;;;37.84;43.75;100608.22;6185264;23;20749;-75
2022/04/11 01:42:16;;;;;;;17.33;7.07;;;;;;;37.79;43.47;100611.03;6158601;23;20879;-74
2022/04/11 01:44:42;;;;;;;12.10;6.67;;;;;;;37.89;42.77;100613.50;6158479;23;20814;-75
2022/04/11 01:47:08;;;;;;;14.50;7.23;;;;;;;37.74;43.03;100608.47;6158841;23;20877;-75
2022/04/11 01:49:34;;;;;;;18.97;7.80;;;;;;;37.79;43.41;100606.41;6158344;23;20495;-75
2022/04/11 01:52:00;;;;;;;17.40;6.87;;;;;;;37.70;43.45;100602.88;6158707;23;20392;-75
2022/04/11 01:54:26;;;;;;;13.20;6.63;;;;;;;37.88;43.49;100598.38;6158378;23;20419;-72
2022/04/11 01:56:52;;;;;;;17.20;7.57;;;;;;;37.82;43.79;100600.44;6158707;23;20706;-73
2022/04/11 01:59:18;;;;;;;18.90;6.63;;;;;;;37.82;43.17;100599.63;6184969;23;20453;-73
2022/04/11 02:01:44;;;;;;;16.70;9.53;;;;;;;37.82;43.83;100599.63;6158456;23;20395;-73
2022/04/11 02:04:11;;;;;;;15.57;7.73;;;;;;;37.65;44.21;100601.09;6158692;23;20463;-75
2022/04/11 02:06:37;;;;;;;17.67;7.13;;;;;;;37.76;43.93;100600.84;6158193;23;20458;-75
2022/04/11 02:09:04;;;;;;;21.80;7.73;;;;;;;37.81;43.42;100604.25;6158638;23;20411;-73
2022/04/11 02:11:30;;;;;;;14.70;9.20;;;;;;;37.88;43.68;100609.22;6158584;23;20398;-73
2022/04/11 02:13:56;;;;;;;25.50;10.20;;;;;;;37.79;44.00;100611.03;6158263;23;20408;-75
2022/04/11 02:16:23;;;;;;;19.67;10.03;;;;;;;37.88;43.61;100611.91;6158432;23;20864;-75
2022/04/11 02:18:49;;;;;;;19.33;9.10;;;;;;;37.87;43.46;100605.69;6158022;23;20462;-75
2022/04/11 02:21:15;;;;;;;15.03;8.90;;;;;;;37.76;43.79;100595.44;6158393;23;20385;-75
2022/04/11 02:23:41;;;;;;;13.90;7.63;;;;;;;37.69;43.25;100601.28;6158381;23;20388;-72
2022/04/11 02:26:08;;;;;;;14.07;7.40;;;;;;;37.75;43.50;100607.34;6184643;23;20416;-73
2022/04/11 02:28:34;;;;;;;19.27;8.03;;;;;;;37.84;43.12;100608.22;6158339;23;20818;-73
2022/04/11 02:31:00;;;;;;;14.00;8.50;;;;;;;37.81;43.23;100606.13;6158035;23;20391;-74
2022/04/11 02:33:26;;;;;;;21.23;8.00;;;;;;;37.89;43.25;100606.19;6158241;23;20390;-73
2022/04/11 02:35:52;;;;;;;22.67;7.77;;;;;;;37.83;43.64;100612.03;6184803;23;20364;-74
2022/04/11 02:38:18;;;;;;;16.10;7.43;;;;;;;37.82;43.53;100610.47;6158178;23;20791;-73
2022/04/11 02:40:46;;;;;;;22.00;7.27;;;;;;;37.72;43.55;100616.09;6133679;23;20384;-74
2022/04/11 02:43:12;;;;;;;13.67;6.23;;;;;;;37.83;44.07;100612.03;6158168;23;20446;-72
2022/04/11 02:45:38;;;;;;;21.20;9.03;;;;;;;37.79;44.16;100608.31;6158046;23;20506;-73
2022/04/11 02:48:04;;;;;;;20.63;7.83;;;;;;;37.87;43.89;100613.00;6133723;23;20415;-73
2022/04/11 02:50:30;;;;;;;18.83;6.97;;;;;;;37.72;43.51;100610.69;6158015;23;20918;-75
2022/04/11 02:52:56;;;;;;;21.40;8.00;;;;;;;37.78;44.19;100609.44;6184674;23;20375;-73
2022/04/11 02:55:22;;;;;;;21.50;9.27;;;;;;;37.69;44.00;100604.00;6158125;23;20411;-73
2022/04/11 02:57:48;;;;;;;16.23;8.80;;;;;;;37.79;43.65;100603.72;6157937;23;20408;-73
2022/04/11 03:00:15;;;;;;;17.67;8.67;;;;;;;37.79;43.71;100603.72;6184179;23;20364;-73
2022/04/11 03:02:41;;;;;;;16.63;8.27;;;;;;;37.70;43.71;100593.97;6157738;23;20377;-72
2022/04/11 03:05:08;;;;;;;14.57;8.03;;;;;;;37.84;43.88;100586.56;6184229;23;20432;-75
2022/04/11 03:07:34;;;;;;;15.53;8.00;;;;;;;37.87;43.72;100591.34;6157992;23;20384;-75
2022/04/11 03:10:00;;;;;;;19.70;8.80;;;;;;;37.91;43.19;100579.59;6157854;23;20390;-74
2022/04/11 03:12:26;;;;;;;19.60;10.53;;;;;;;37.90;43.54;100579.91;6157840;23;20700;-73
2022/04/11 03:14:53;;;;;;;17.70;9.63;;;;;;;37.94;43.29;100580.88;6157874;23;20384;-72
2022/04/11 03:17:19;;;;;;;22.80;9.13;;;;;;;37.91;43.59;100576.88;6184092;23;20455;-73
2022/04/11 03:19:45;;;;;;;23.67;8.40;;;;;;;37.87;43.57;100575.91;6157719;23;20474;-75
2022/04/11 03:22:12;;;;;;;30.03;9.53;;;;;;;37.86;43.67;100578.91;6184179;23;20386;-75
2022/04/11 03:24:39;;;;;;;18.90;10.37;;;;;;;37.91;43.32;100581.50;6157603;23;20923;-75
2022/04/11 03:27:05;;;;;;;17.27;8.53;;;;;;;37.88;43.54;100582.94;6157773;23;20391;-73
2022/04/11 03:29:31;;;;;;;17.27;6.40;;;;;;;37.79;43.35;100576.63;6157686;23;20412;-73
2022/04/11 03:31:57;;;;;;;13.57;8.30;;;;;;;37.87;43.57;100575.09;6157844;23;20426;-73
2022/04/11 03:34:23;;;;;;;25.47;8.70;;;;;;;37.89;43.50;100573.69;6157740;23;20392;-73
2022/04/11 03:36:51;;;;;;;20.93;8.07;;;;;;;37.93;43.64;100571.13;6157824;23;20388;-73
2022/04/11 03:39:17;;;;;;;19.80;7.40;;;;;;;37.96;43.48;100569.75;6157686;23;20467;-75
2022/04/11 03:41:43;;;;;;;22.50;7.70;;;;;;;38.00;43.08;100568.81;6157798;23;20387;-73
2022/04/11 03:44:10;;;;;;;19.17;8.47;;;;;;;38.01;43.27;100566.88;6157619;23;20419;-73
2022/04/11 03:46:39;;;;;;;15.00;9.13;;;;;;;38.03;43.32;100575.50;6157414;23;20432;-73
2022/04/11 03:49:06;;;;;;;17.53;9.50;;;;;;;37.95;42.65;100566.22;6157762;23;20392;-73
2022/04/11 03:51:32;;;;;;;23.47;9.60;;;;;;;37.86;43.06;100568.09;6157409;23;20491;-73
2022/04/11 03:53:59;;;;;;;15.23;9.00;;;;;;;37.91;42.97;100570.66;6184122;23;20376;-73
2022/04/11 03:56:25;;;;;;;24.47;9.37;;;;;;;38.01;42.98;100578.53;6157447;23;20404;-75
2022/04/11 03:58:51;;;;;;;26.03;8.17;;;;;;;37.99;43.16;100577.22;6157429;23;20411;-75
2022/04/11 04:01:17;;;;;;;20.73;9.20;;;;;;;38.00;42.84;100581.50;6157682;23;20381;-74
2022/04/11 04:03:43;;;;;;;21.33;8.50;;;;;;;38.04;42.82;100587.91;6157384;23;20411;-72
2022/04/11 04:06:11;;;;;;;27.57;11.97;;;;;;;37.98;43.25;100591.88;6157560;23;20503;-73
2022/04/11 04:08:37;;;;;;;36.90;10.87;;;;;;;37.94;43.23;100596.31;6157565;23;20927;-74
2022/04/11 04:11:04;;;;;;;20.60;10.20;;;;;;;37.95;43.27;100592.50;6157572;23;20914;-74
2022/04/11 04:13:30;;;;;;;21.67;9.33;;;;;;;38.00;42.69;100600.47;6186094;23;20368;-73
2022/04/11 04:15:56;;;;;;;25.30;8.23;;;;;;;38.04;42.56;100606.88;6159287;23;20427;-73
2022/04/11 04:18:22;;;;;;;15.53;8.73;;;;;;;38.06;42.73;100600.06;6159306;23;20447;-73
2022/04/11 04:20:48;;;;;;;17.70;7.50;;;;;;;38.05;42.85;100601.13;6186088;23;20439;-75
2022/04/11 04:23:17;;;;;;;19.43;9.30;;;;;;;38.07;42.84;100596.22;6159709;23;20483;-73
2022/04/11 04:25:43;;;;;;;22.30;9.20;;;;;;;37.95;43.63;100604.13;6159457;23;20428;-76
2022/04/11 04:28:09;;;;;;;22.83;9.00;;;;;;;38.00;43.14;100606.72;6185846;23;20365;-73
2022/04/11 04:30:35;;;;;;;16.47;8.10;;;;;;;38.01;42.98;100612.94;6186013;23;20392;-75
2022/04/11 04:33:01;;;;;;;21.63;9.10;;;;;;;37.95;43.39;100614.19;6159388;23;20380;-73
2022/04/11 04:35:27;;;;;;;14.60;7.17;;;;;;;38.00;43.33;100614.84;6158885;23;20861;-73
2022/04/11 04:37:53;;;;;;;22.60;8.90;;;;;;;37.85;43.57;100616.03;6185931;23;20363;-73
2022/04/11 04:40:20;;;;;;;16.80;7.33;;;;;;;37.95;43.39;100614.19;6185817;23;20360;-73
2022/04/11 04:42:46;;;;;;;24.43;11.40;;;;;;;37.97;43.76;100620.06;6185926;23;20376;-73
2022/04/11 04:45:12;;;;;;;28.80;10.07;;;;;;;38.01;43.24;100619.13;6159237;23;20423;-73
2022/04/11 04:47:39;;;;;;;23.00;11.10;;;;;;;37.97;43.45;100625.47;6159202;23;20386;-73
2022/04/11 04:50:06;;;;;;;27.47;10.63;;;;;;;38.03;43.48;100627.75;6159301;23;20379;-73
2022/04/11 04:52:32;;;;;;;18.27;8.50;;;;;;;37.95;43.48;100625.81;6185524;23;20745;-73
2022/04/11 04:54:58;;;;;;;16.60;7.03;;;;;;;37.99;43.16;100637.59;6159143;23;20404;-73
2022/04/11 04:57:25;;;;;;;17.03;8.30;;;;;;;37.96;43.28;100645.56;6159272;23;20435;-72
2022/04/11 04:59:51;;;;;;;33.23;12.83;;;;;;;37.91;42.92;100646.47;6159073;23;20412;-75
2022/04/11 05:02:18;;;;;;;22.57;8.10;;;;;;;37.84;43.44;100646.94;6159628;23;20395;-73
2022/04/11 05:04:44;;;;;;;19.93;8.37;;;;;;;37.88;43.44;100647.13;6158961;23;20823;-73
2022/04/11 05:07:10;;;;;;;27.43;7.67;;;;;;;37.90;43.07;100644.88;6159335;23;20453;-73
2022/04/11 05:09:36;;;;;;;16.57;8.07;;;;;;;37.91;43.66;100649.97;6159167;23;20380;-75
2022/04/11 05:12:03;;;;;;;19.77;10.20;;;;;;;37.97;43.50;100649.84;6159015;23;20408;-75
2022/04/11 05:14:29;;;;;;;25.00;11.43;;;;;;;37.95;43.40;100652.09;6158927;23;20468;-73
2022/04/11 05:16:55;;;;;;;12.47;8.17;;;;;;;37.80;43.78;100655.94;6184991;23;20411;-73
2022/04/11 05:19:21;;;;;;;16.70;8.50;;;;;;;37.79;43.95;100657.84;6185289;23;20834;-75
2022/04/11 05:21:47;;;;;;;19.83;8.60;;;;;;;37.70;44.18;100662.44;6158919;23;20452;-75
2022/04/11 05:24:14;;;;;;;27.03;9.90;;;;;;;37.56;44.57;100662.47;6158520;23;20391;-73
2022/04/11 05:26:40;;;;;;;16.40;8.23;;;;;;;37.54;44.56;100669.31;6185186;23;20453;-75
2022/04/11 05:29:06;;;;;;;24.10;10.10;;;;;;;37.70;44.05;100667.03;6158805;23;20466;-72
2022/04/11 05:31:32;;;;;;;30.87;8.57;;;;;;;37.70;44.22;100665.13;6158973;23;20396;-76
2022/04/11 05:34:00;;;;;;;24.97;9.53;;;;;;;37.71;43.79;100666.72;6158789;23;20413;-73
2022/04/11 05:36:26;;;;;;;16.07;7.27;;;;;;;37.81;43.83;100662.97;6158819;23;20392;-73
2022/04/11 05:38:52;;;;;;;17.33;9.37;;;;;;;37.86;44.02;100669.06;6158797;23;20396;-75
2022/04/11 05:41:18;;;;;;;19.40;9.23;;;;;;;37.79;44.13;100673.31;6158479;23;20436;-72
2022/04/11 05:43:44;;;;;;;23.90;11.00;;;;;;;37.74;43.95;100676.13;6158884;23;20392;-74
2022/04/11 05:46:11;;;;;;;20.20;7.83;;;;;;;37.77;44.03;100684.44;6158568;23;20436;-75
2022/04/11 05:48:38;;;;;;;19.60;10.23;;;;;;;37.83;43.92;100682.44;6158623;23;20471;-73
2022/04/11 05:51:04;;;;;;;17.70;9.50;;;;;;;37.77;44.25;100689.06;6134313;23;20445;-74
2022/04/11 05:53:30;;;;;;;28.03;10.17;;;;;;;37.70;43.70;100692.22;6158331;23;20447;-76
2022/04/11 05:55:56;;;;;;;25.63;10.70;;;;;;;37.65;44.44;100695.03;6185225;23;20356;-71
2022/04/11 05:58:22;;;;;;;24.90;11.03;;;;;;;37.76;43.66;100693.69;6158567;23;20392;-75
2022/04/11 06:00:48;;;;;;;18.23;9.90;;;;;;;37.72;44.05;100700.00;6184848;23;20422;-75
2022/04/11 06:03:14;;;;;;;22.23;8.27;;;;;;;37.86;43.61;100711.59;6158663;23;20396;-78
2022/04/11 06:05:40;;;;;;;17.07;8.40;;;;;;;37.76;43.88;100711.84;6184904;23;20423;-77
2022/04/11 06:08:07;;;;;;;19.80;10.90;;;;;;;37.73;44.13;100715.94;6158598;23;20416;-77
2022/04/11 06:10:33;;;;;;;34.23;11.50;;;;;;;37.74;44.02;100724.84;6184800;23;20368;-79
2022/04/11 06:12:59;;;;;;;16.30;8.50;;;;;;;37.81;43.98;100725.25;6158129;23;20399;-73
2022/04/11 06:15:25;;;;;;;16.20;8.20;;;;;;;37.79;43.76;100730.16;6185009;23;20455;-74
2022/04/11 06:17:51;;;;;;;34.00;8.40;;;;;;;37.72;44.27;100740.63;6156926;23;20607;-75
2022/04/11 06:20:17;;;;;;;24.47;10.37;;;;;;;37.72;44.50;100737.91;6158187;23;20416;-75
2022/04/11 06:22:45;;;;;;;17.73;9.67;;;;;;;37.78;44.01;100742.09;6157887;23;20916;-74
2022/04/11 06:25:11;;;;;;;21.60;10.50;;;;;;;37.72;43.97;100746.03;6157917;23;20432;-74
2022/04/11 06:27:40;;;;;;;15.47;9.33;;;;;;;37.68;44.32;100747.75;6158015;23;20380;-74
2022/04/11 06:30:07;;;;;;;20.67;9.17;;;;;;;37.75;44.26;100743.53;6183842;23;20415;-73
2022/04/11 06:32:34;;;;;;;16.63;8.60;;;;;;;37.80;43.90;100753.41;6157464;23;20383;-74
2022/04/11 06:35:01;;;;;;;20.40;10.73;;;;;;;37.61;44.58;100748.97;6157655;23;20376;-74
2022/04/11 06:37:27;;;;;;;17.27;9.30;;;;;;;37.67;44.11;100754.25;6158171;23;20463;-74
2022/04/11 06:39:54;;;;;;;20.00;8.73;;;;;;;37.58;44.39;100760.41;6158014;23;20385;-75
2022/04/11 06:42:21;;;;;;;19.40;7.53;;;;;;;37.60;43.54;100766.31;6184438;23;20356;-74
2022/04/11 06:44:47;;;;;;;22.57;8.10;;;;;;;37.75;43.55;100769.75;6157736;23;20412;-79
2022/04/11 06:47:13;;;;;;;15.30;8.00;;;;;;;37.75;43.86;100783.28;6157912;23;20386;-78
2022/04/11 06:49:40;;;;;;;19.50;9.50;;;;;;;37.75;43.45;100772.47;6183975;23;20439;-73
2022/04/11 06:52:06;;;;;;;23.17;9.27;;;;;;;37.79;43.84;100785.09;6157899;23;20848;-77
2022/04/11 06:54:33;;;;;;;23.43;9.57;;;;;;;37.83;43.86;100793.44;6157709;23;20404;-78
2022/04/11 06:57:00;;;;;;;29.47;11.43;;;;;;;37.89;43.85;100793.00;6157152;23;20376;-77
2022/04/11 06:59:26;;;;;;;18.40;10.87;;;;;;;37.87;43.33;100797.91;6157964;23;20479;-74
2022/04/11 07:01:52;;;;;;;14.40;8.07;;;;;;;37.96;43.73;100800.69;6157728;23;20384;-79
2022/04/11 07:04:20;;;;;;;20.23;9.80;;;;;;;37.99;43.86;100805.50;6157714;23;20404;-78
2022/04/11 07:06:46;;;;;;;19.30;8.37;;;;;;;37.98;43.44;100808.50;6157775;23;20428;-79
2022/04/11 07:09:12;;;;;;;18.00;8.93;;;;;;;37.88;44.00;100807.66;6158028;23;20396;-78
2022/04/11 07:11:38;;;;;;;19.17;9.90;;;;;;;37.80;43.71;100812.97;6157463;23;20432;-79
2022/04/11 07:14:14;;;;;;;21.97;13.30;;;;;;;37.91;43.70;100809.75;6157523;23;20391;-73
2022/04/11 07:16:41;;;;;;;31.07;10.53;;;;;;;37.95;43.05;100806.44;6157300;23;20863;-74
2022/04/11 07:19:08;;;;;;;26.23;8.83;;;;;;;37.93;43.73;100812.13;6183759;23;20947;-74
2022/04/11 07:21:34;;;;;;;19.47;9.10;;;;;;;38.01;43.50;100811.41;6157457;23;20376;-73
2022/04/11 07:24:00;;;;;;;16.47;7.30;;;;;;;38.06;43.79;100822.13;6157445;23;20904;-78
2022/04/11 07:26:27;;;;;;;24.63;8.40;;;;;;;37.95;42.80;100828.09;6183755;23;20415;-76
2022/04/11 07:28:53;;;;;;;22.10;11.03;;;;;;;37.98;42.22;100827.47;6157469;23;20408;-77
2022/04/11 07:31:19;;;;;;;15.93;8.40;;;;;;;37.97;42.50;100829.38;6183936;23;20364;-73
2022/04/11 07:33:47;;;;;;;23.23;11.77;;;;;;;37.96;43.07;100837.81;6184027;23;20422;-73
2022/04/11 07:36:13;;;;;;;24.73;8.37;;;;;;;38.03;43.25;100838.97;6157322;23;20492;-78
2022/04/11 07:38:39;;;;;;;17.40;7.00;;;;;;;38.14;42.85;100834.13;6157248;23;20936;-78
2022/04/11 07:41:05;;;;;;;16.17;9.20;;;;;;;38.19;42.65;100850.25;6157358;23;20740;-80
2022/04/11 07:43:31;;;;;;;19.43;8.40;;;;;;;38.15;42.88;100852.78;6157356;23;20482;-79
2022/04/11 07:46:01;;;;;;;19.33;9.20;;;;;;;38.23;42.73;100862.06;6157139;23;20436;-78
2022/04/11 07:48:27;;;;;;;17.80;10.33;;;;;;;38.26;42.64;100861.50;6157156;23;20889;-73
2022/04/11 07:50:56;;;;;;;19.20;10.80;;;;;;;38.27;42.47;100867.72;6157223;23;20419;-77
2022/04/11 07:53:25;;;;;;;14.20;7.40;;;;;;;38.30;42.63;100872.50;6157355;23;20419;-79
2022/04/11 07:55:51;;;;;;;15.60;8.30;;;;;;;38.24;43.16;100866.38;6157062;23;20380;-74
2022/04/11 07:58:39;;;;;;;13.80;6.73;;;;;;;38.27;43.05;100873.94;6157354;23;20384;-78
2022/04/11 08:01:05;;;;;;;22.33;9.23;;;;;;;38.32;42.58;100890.06;6183626;23;20716;-75
2022/04/11 08:03:31;;;;;;;20.23;7.77;;;;;;;38.21;42.65;100901.41;6157046;23;20387;-75
2022/04/11 08:05:57;;;;;;;14.50;8.27;;;;;;;38.27;42.58;100892.91;6157086;23;20431;-73
2022/04/11 08:08:26;;;;;;;16.60;8.07;;;;;;;38.34;42.31;100895.16;6183896;23;20356;-75
2022/04/11 08:10:53;;;;;;;13.40;8.30;;;;;;;38.31;42.49;100898.50;6133029;23;20840;-75
2022/04/11 08:13:20;;;;;;;17.90;8.80;;;;;;;38.27;42.98;100903.72;6157251;23;20465;-73
2022/04/11 08:15:50;;;;;;;19.70;8.07;;;;;;;38.32;42.69;100911.75;6131659;23;20463;-72
2022/04/11 08:18:16;;;;;;;21.80;7.63;;;;;;;38.25;43.05;100916.75;6155687;23;20451;-72
2022/04/11 08:20:42;;;;;;;23.17;8.40;;;;;;;38.36;42.27;100920.03;6157055;23;20431;-75
2022/04/11 08:23:08;;;;;;;12.60;6.03;;;;;;;38.28;42.51;100927.00;6157338;23;20454;-74
2022/04/11 08:25:34;;;;;;;13.90;6.97;;;;;;;38.44;42.33;100920.13;6156680;23;20442;-73
2022/04/11 08:28:00;;;;;;;25.60;9.47;;;;;;;38.39;42.66;100931.06;6182758;23;20372;-76
2022/04/11 08:30:26;;;;;;;13.03;7.27;;;;;;;38.48;42.60;100939.25;6183057;23;20379;-74
2022/04/11 08:32:53;;;;;;;17.60;8.83;;;;;;;38.43;42.44;100934.78;6183472;23;20452;-70
2022/04/11 08:35:21;;;;;;;14.00;8.37;;;;;;;38.49;42.63;100937.34;6183675;23;20364;-70
2022/04/11 08:37:51;;;;;;;15.80;7.50;;;;;;;38.58;42.53;100924.66;6132633;23;20416;-72
2022/04/11 08:40:21;;;;;;;16.10;6.73;;;;;;;38.55;42.01;100926.09;6157193;23;20459;-72
2022/04/11 08:42:48;;;;;;;12.77;7.10;;;;;;;38.60;42.18;100925.16;6157887;23;20840;-74
2022/04/11 08:45:16;;;;;;;19.27;9.93;;;;;;;38.53;42.33;100916.66;6157110;23;20463;-73
2022/04/11 08:47:43;;;;;;;19.40;7.00;;;;;;;38.56;42.44;100919.56;6156772;23;20841;-72
2022/04/11 08:50:11;;;;;;;10.80;8.00;;;;;;;38.42;42.86;100916.09;6157204;23;20384;-71
2022/04/11 08:52:38;;;;;;;13.17;8.70;;;;;;;38.56;42.47;100922.28;6157265;23;20543;-73
2022/04/11 08:55:05;;;;;;;16.80;9.13;;;;;;;38.48;42.83;100923.00;6157120;23;20819;-79
2022/04/11 08:57:34;;;;;;;13.97;7.30;;;;;;;38.48;42.51;100941.97;6182372;23;20801;-81
2022/04/11 09:00:11;;;;;;;18.57;9.00;;;;;;;38.72;42.01;100927.31;6158785;23;20412;-75
2022/04/11 09:02:38;;;;;;;12.20;6.70;;;;;;;38.69;42.15;100934.16;6159294;23;20412;-77
2022/04/11 09:05:04;;;;;;;11.60;7.10;;;;;;;38.68;42.28;100924.41;6158988;23;20423;-76
2022/04/11 09:07:47;;;;;;;14.57;6.53;;;;;;;38.57;43.04;100929.28;6158341;23;20384;-78
2022/04/11 09:10:18;;;;;;;25.47;9.23;;;;;;;38.62;42.59;100928.38;6185293;23;20363;-77
2022/04/11 09:12:56;;;;;;;22.73;8.70;;;;;;;38.62;42.52;100923.75;6185099;23;20388;-80
2022/04/11 09:15:25;;;;;;;18.40;6.30;;;;;;;38.66;42.33;100923.91;6159022;23;20418;-78
2022/04/11 09:17:53;;;;;;;14.17;5.93;;;;;;;38.54;41.95;100913.63;6158651;23;20459;-78
2022/04/11 09:20:26;;;;;;;19.67;8.37;;;;;;;38.56;42.50;100910.63;6159040;23;20393;-79
2022/04/11 09:22:53;;;;;;;15.17;6.43;;;;;;;38.55;42.84;100909.00;6158988;23;20420;-78
2022/04/11 09:25:23;;;;;;;30.43;10.00;;;;;;;38.55;42.72;100915.25;6158170;23;20427;-78
2022/04/11 09:28:04;;;;;;;15.20;7.30;;;;;;;38.53;43.20;100917.47;6159015;23;20411;-74
2022/04/11 09:30:31;;;;;;;18.03;5.80;;;;;;;38.36;43.03;100922.75;6158286;23;20392;-76
2022/04/11 09:32:57;;;;;;;13.90;8.10;;;;;;;38.57;42.36;100926.56;6158522;23;20880;-79
2022/04/11 09:35:34;;;;;;;17.10;7.00;;;;;;;38.56;42.62;100929.59;6158500;23;20388;-75
2022/04/11 09:38:09;;;;;;;17.23;5.70;;;;;;;38.65;42.75;100925.03;6158656;23;20392;-79
2022/04/11 09:40:55;;;;;;;13.70;6.10;;;;;;;38.61;42.42;100924.88;6186356;23;20352;-80
2022/04/11 09:43:51;;;;;;;13.53;7.47;;;;;;;38.61;42.56;100930.28;6159189;22;20447;-83
2022/04/11 09:46:18;;;;;;;11.10;6.60;;;;;;;38.75;42.52;100932.16;6180798;23;20431;-76
2022/04/11 09:48:45;;;;;;;19.90;7.37;;;;;;;38.76;42.29;100931.03;6157549;23;20380;-77
2022/04/11 09:51:15;;;;;;;13.23;6.53;;;;;;;38.76;42.58;100928.31;6157379;23;20387;-76
2022/04/11 09:53:43;;;;;;;11.53;5.93;;;;;;;38.77;42.85;100929.91;6158480;23;20388;-74
2022/04/11 09:56:10;;;;;;;13.90;6.20;;;;;;;38.91;42.26;100931.41;6158409;23;20404;-77
2022/04/11 09:58:44;;;;;;;16.43;6.70;;;;;;;38.83;42.88;100925.97;6159009;23;20462;-81
2022/04/11 10:01:37;;;;;;;12.10;6.47;;;;;;;38.85;42.47;100929.16;6137207;23;20392;-86
2022/04/11 10:04:13;;;;;;;11.00;6.73;;;;;;;38.83;42.39;100923.25;6173098;23;20427;-84
2022/04/11 10:06:40;;;;;;;20.50;6.63;;;;;;;38.87;42.63;100921.53;6135659;23;20923;-81
2022/04/11 10:09:11;;;;;;;15.13;5.83;;;;;;;38.82;42.37;100925.16;6159733;23;20883;-81
2022/04/11 10:11:42;;;;;;;14.80;5.90;;;;;;;38.76;42.92;100925.59;6157534;23;20384;-84
2022/04/11 10:14:17;;;;;;;15.57;8.40;;;;;;;38.84;42.90;100917.50;6186894;23;20376;-81
2022/04/11 10:16:44;;;;;;;11.43;6.63;;;;;;;38.78;42.69;100917.94;6136585;23;20442;-84
2022/04/11 10:19:14;;;;;;;13.63;6.30;;;;;;;38.90;42.32;100918.19;6185519;23;20384;-81
2022/04/11 10:21:43;;;;;;;14.70;6.40;;;;;;;38.84;42.56;100920.22;6158710;23;20392;-81
2022/04/11 10:24:45;;;;;;;19.30;6.13;;;;;;;38.68;43.14;100919.00;6133561;23;20373;-81
2022/04/11 10:27:25;;;;;;;14.27;6.70;;;;;;;38.85;42.58;100902.03;6134802;23;20946;-81
2022/04/11 10:29:55;;;;;;;10.57;6.10;;;;;;;38.83;42.60;100896.94;6158601;23;20395;-81
2022/04/11 10:32:27;;;;;;;15.80;8.30;;;;;;;38.79;42.83;100890.53;6158178;23;20388;-77
2022/04/11 10:34:55;;;;;;;16.97;6.27;;;;;;;38.75;42.69;100883.34;6159661;23;20361;-80
2022/04/11 10:37:41;;;;;;;17.73;6.63;;;;;;;38.66;43.30;100873.19;6135686;23;20388;-82
2022/04/11 10:40:16;;;;;;;11.57;6.27;;;;;;;38.59;43.33;100866.63;6185322;23;20731;-81
2022/04/11 10:43:01;;;;;;;11.57;5.80;;;;;;;38.54;43.15;100872.19;6161431;23;20384;-81
2022/04/11 10:45:34;;;;;;;13.97;6.30;;;;;;;38.72;42.94;100864.97;6130693;23;20488;-79
2022/04/11 10:48:06;;;;;;;14.53;6.90;;;;;;;38.84;42.87;100865.97;6155294;23;20903;-82
2022/04/11 10:50:40;;;;;;;24.13;8.87;;;;;;;38.82;43.18;100860.09;6128264;23;20385;-88
2022/04/11 10:53:24;;;;;;;17.17;6.37;;;;;;;38.77;43.13;100857.50;6154102;23;20389;-81
2022/04/11 10:56:05;;;;;;;13.63;7.10;;;;;;;38.94;43.01;100852.16;6152493;23;20349;-80
2022/04/11 10:58:51;;;;;;;19.20;6.63;;;;;;;38.85;43.18;100853.22;6152330;23;20933;-81
2022/04/11 11:01:43;;;;;;;12.70;5.40;;;;;;;38.86;43.19;100855.66;6126026;23;20420;-80
2022/04/11 11:04:17;;;;;;;10.97;5.77;;;;;;;38.83;43.01;100850.03;6116074;23;20472;-80
2022/04/11 11:06:43;;;;;;;13.13;5.20;;;;;;;38.76;43.27;100839.63;6126056;23;20448;-79
2022/04/11 11:09:19;;;;;;;13.80;6.50;;;;;;;38.73;43.86;100842.16;6126592;23;20380;-78
2022/04/11 11:11:49;;;;;;;17.70;5.73;;;;;;;38.86;43.27;100835.88;6128196;23;20392;-75
2022/04/11 11:14:43;;;;;;;19.07;6.27;;;;;;;38.67;43.58;100836.88;6128419;23;20381;-77
2022/04/11 11:17:10;;;;;;;23.73;8.70;;;;;;;38.72;43.84;100832.44;6127886;23;20405;-77
2022/04/11 11:20:02;;;;;;;15.80;6.70;;;;;;;38.66;43.94;100818.97;6127432;23;20385;-78
2022/04/11 11:22:33;;;;;;;15.87;6.87;;;;;;;38.65;43.75;100814.69;6127439;23;20382;-78